createdAt,value
2018-03-31T00:00:16.252Z,35.24
2018-03-31T00:01:16.254Z,34.96
2018-03-31T00:02:16.230Z,34.96
2018-03-31T00:03:16.231Z,35.16
2018-03-31T00:04:16.239Z,35.25
2018-03-31T00:05:16.210Z,35.16
2018-03-31T00:06:16.216Z,35.35
2018-03-31T00:07:16.207Z,35.06
2018-03-31T00:08:16.201Z,35.16
2018-03-31T00:09:16.196Z,35.16
2018-03-31T00:10:16.192Z,35.35
2018-03-31T00:11:16.186Z,34.96
2018-03-31T00:12:16.186Z,34.96
2018-03-31T00:13:16.175Z,35.06
2018-03-31T00:14:16.202Z,35.16
2018-03-31T00:15:16.185Z,35.06
2018-03-31T00:16:16.156Z,35.16
2018-03-31T00:17:16.169Z,35.35
2018-03-31T00:18:16.144Z,35.16
2018-03-31T00:19:16.155Z,34.96
2018-03-31T00:20:16.151Z,34.96
2018-03-31T00:21:16.141Z,35.06
2018-03-31T00:22:16.134Z,35.06
2018-03-31T00:23:16.139Z,35.25
2018-03-31T00:24:16.136Z,34.96
2018-03-31T00:25:16.121Z,34.96
2018-03-31T00:26:16.122Z,35.16
2018-03-31T00:27:16.112Z,35.16
2018-03-31T00:28:16.114Z,34.86
2018-03-31T00:29:16.100Z,35.06
2018-03-31T00:30:16.090Z,34.96
2018-03-31T00:31:16.091Z,35.54
2018-03-31T00:32:16.085Z,34.96
2018-03-31T00:33:16.082Z,35.16
2018-03-31T00:34:16.074Z,34.84
2018-03-31T00:35:16.074Z,35.06
2018-03-31T00:36:16.067Z,35.04
2018-03-31T00:37:16.052Z,34.94
2018-03-31T00:38:16.061Z,34.86
2018-03-31T00:39:16.044Z,34.84
2018-03-31T00:40:16.045Z,35.14
2018-03-31T00:41:16.047Z,34.86
2018-03-31T00:42:16.037Z,34.94
2018-03-31T00:43:16.021Z,34.86
2018-03-31T00:44:16.031Z,34.96
2018-03-31T00:45:16.015Z,35.04
2018-03-31T00:46:16.022Z,34.77
2018-03-31T00:47:16.007Z,34.94
2018-03-31T00:48:16.005Z,34.94
2018-03-31T00:49:16.008Z,35.14
2018-03-31T00:50:15.991Z,34.77
2018-03-31T00:51:16.012Z,34.86
2018-03-31T00:52:15.985Z,34.94
2018-03-31T00:53:15.978Z,35.04
2018-03-31T00:54:15.978Z,34.84
2018-03-31T00:55:15.984Z,34.84
2018-03-31T00:56:15.967Z,34.96
2018-03-31T00:57:15.976Z,34.96
2018-03-31T00:58:15.960Z,34.94
2018-03-31T00:59:15.953Z,34.94
2018-03-31T01:00:15.960Z,34.75
2018-03-31T01:01:15.949Z,34.86
2018-03-31T01:02:15.945Z,34.84
2018-03-31T01:03:15.934Z,34.75
2018-03-31T01:04:15.923Z,34.75
2018-03-31T01:05:15.925Z,34.84
2018-03-31T01:06:15.906Z,34.75
2018-03-31T01:07:15.907Z,34.94
2018-03-31T01:08:15.907Z,34.94
2018-03-31T01:09:15.901Z,35.14
2018-03-31T01:10:15.896Z,34.94
2018-03-31T01:11:15.895Z,34.94
2018-03-31T01:12:15.890Z,34.84
2018-03-31T01:13:15.886Z,35.24
2018-03-31T01:14:15.877Z,35.14
2018-03-31T01:15:15.866Z,35.04
2018-03-31T01:16:15.869Z,34.84
2018-03-31T01:17:15.865Z,34.96
2018-03-31T01:18:15.857Z,34.94
2018-03-31T01:19:15.850Z,34.84
2018-03-31T01:20:15.843Z,34.84
2018-03-31T01:21:15.841Z,34.75
2018-03-31T01:22:15.836Z,34.75
2018-03-31T01:23:15.825Z,34.84
2018-03-31T01:24:15.823Z,34.84
2018-03-31T01:25:15.806Z,34.94
2018-03-31T01:26:15.816Z,34.75
2018-03-31T01:27:15.807Z,35.04
2018-03-31T01:28:15.811Z,35.16
2018-03-31T01:29:15.807Z,34.84
2018-03-31T01:30:15.797Z,34.75
2018-03-31T01:31:15.785Z,34.84
2018-03-31T01:32:15.776Z,35.04
2018-03-31T01:33:15.791Z,34.94
2018-03-31T01:34:15.790Z,35.04
2018-03-31T01:35:15.776Z,34.94
2018-03-31T01:36:15.768Z,34.84
2018-03-31T01:37:15.762Z,34.94
2018-03-31T01:38:15.741Z,34.96
2018-03-31T01:39:15.750Z,34.96
2018-03-31T01:40:15.762Z,34.96
2018-03-31T01:41:15.741Z,35.06
2018-03-31T01:42:15.741Z,35.16
2018-03-31T01:43:15.734Z,35.06
2018-03-31T01:44:15.723Z,34.94
2018-03-31T01:45:15.721Z,35.24
2018-03-31T01:46:15.736Z,35.24
2018-03-31T01:47:15.715Z,35.14
2018-03-31T01:48:15.699Z,34.96
2018-03-31T01:49:15.706Z,34.77
2018-03-31T01:50:15.692Z,34.86
2018-03-31T01:51:15.694Z,34.96
2018-03-31T01:52:15.684Z,35.16
2018-03-31T01:53:15.694Z,34.96
2018-03-31T01:54:15.677Z,35.25
2018-03-31T01:55:15.672Z,34.96
2018-03-31T01:56:15.662Z,35.25
2018-03-31T01:57:15.658Z,34.96
2018-03-31T01:58:15.647Z,34.96
2018-03-31T01:59:15.646Z,34.96
2018-03-31T02:00:15.660Z,34.86
2018-03-31T02:01:15.639Z,34.67
2018-03-31T02:02:15.651Z,34.96
2018-03-31T02:03:15.633Z,35.06
2018-03-31T02:04:15.618Z,34.86
2018-03-31T02:05:15.622Z,34.96
2018-03-31T02:06:15.623Z,34.86
2018-03-31T02:07:15.602Z,34.77
2018-03-31T02:08:15.603Z,34.96
2018-03-31T02:09:15.597Z,35.16
2018-03-31T02:10:15.607Z,35.16
2018-03-31T02:11:15.582Z,35.06
2018-03-31T02:12:15.586Z,34.48
2018-03-31T02:13:15.582Z,35.16
2018-03-31T02:14:15.575Z,35.16
2018-03-31T02:15:15.578Z,34.86
2018-03-31T02:16:15.574Z,35.24
2018-03-31T02:17:15.609Z,34.96
2018-03-31T02:18:15.559Z,34.96
2018-03-31T02:19:15.550Z,34.96
2018-03-31T02:20:15.538Z,35.25
2018-03-31T02:21:15.538Z,34.86
2018-03-31T02:22:15.528Z,35.25
2018-03-31T02:23:15.532Z,35.14
2018-03-31T02:24:15.523Z,35.25
2018-03-31T02:25:15.517Z,35.04
2018-03-31T02:26:15.515Z,35.35
2018-03-31T02:27:15.522Z,35.16
2018-03-31T02:28:15.509Z,34.94
2018-03-31T02:29:15.491Z,35.16
2018-03-31T02:30:15.490Z,34.77
2018-03-31T02:31:15.489Z,35.14
2018-03-31T02:32:15.475Z,35.14
2018-03-31T02:33:15.492Z,35.06
2018-03-31T02:34:15.469Z,35.06
2018-03-31T02:35:15.472Z,34.84
2018-03-31T02:36:15.468Z,35.25
2018-03-31T02:37:15.459Z,34.77
2018-03-31T02:38:15.453Z,34.96
2018-03-31T02:39:15.456Z,35.25
2018-03-31T02:40:15.442Z,35.16
2018-03-31T02:41:15.432Z,34.94
2018-03-31T02:42:15.430Z,34.84
2018-03-31T02:43:15.420Z,34.94
2018-03-31T02:44:15.419Z,35.16
2018-03-31T02:45:15.418Z,35.06
2018-03-31T02:46:15.414Z,35.14
2018-03-31T02:47:15.410Z,35.14
2018-03-31T02:48:15.402Z,35.25
2018-03-31T02:49:15.394Z,34.96
2018-03-31T02:50:15.395Z,35.06
2018-03-31T02:51:15.388Z,35.33
2018-03-31T02:52:15.374Z,34.94
2018-03-31T02:53:15.378Z,35.16
2018-03-31T02:54:15.384Z,35.24
2018-03-31T02:55:15.367Z,35.14
2018-03-31T02:56:15.374Z,34.84
2018-03-31T02:57:15.354Z,34.94
2018-03-31T02:58:15.352Z,34.94
2018-03-31T02:59:15.343Z,34.94
2018-03-31T03:00:15.341Z,34.94
2018-03-31T03:01:15.339Z,35.04
2018-03-31T03:02:15.336Z,35.14
2018-03-31T03:03:15.324Z,35.04
2018-03-31T03:04:15.322Z,35.14
2018-03-31T03:05:15.320Z,35.04
2018-03-31T03:06:15.309Z,35.24
2018-03-31T03:07:15.310Z,35.42
2018-03-31T03:08:15.301Z,35.04
2018-03-31T03:09:15.303Z,34.94
2018-03-31T03:10:15.289Z,34.94
2018-03-31T03:11:15.289Z,34.94
2018-03-31T03:12:15.289Z,35.14
2018-03-31T03:13:15.288Z,34.94
2018-03-31T03:14:15.266Z,34.94
2018-03-31T03:15:15.264Z,34.56
2018-03-31T03:16:15.270Z,35.04
2018-03-31T03:17:15.258Z,35.04
2018-03-31T03:18:15.254Z,35.04
2018-03-31T03:19:15.243Z,35.04
2018-03-31T03:20:15.244Z,35.71
2018-03-31T03:21:15.236Z,35.33
2018-03-31T03:22:15.221Z,34.75
2018-03-31T03:23:15.228Z,34.94
2018-03-31T03:24:15.219Z,34.94
2018-03-31T03:25:15.213Z,34.94
2018-03-31T03:26:15.210Z,35.24
2018-03-31T03:27:15.209Z,35.24
2018-03-31T03:28:15.213Z,35.24
2018-03-31T03:29:15.207Z,35.24
2018-03-31T03:30:15.199Z,34.94
2018-03-31T03:31:15.184Z,34.94
2018-03-31T03:32:15.176Z,34.94
2018-03-31T03:33:15.174Z,35.04
2018-03-31T03:34:15.173Z,34.94
2018-03-31T03:35:15.165Z,35.04
2018-03-31T03:36:15.162Z,34.94
2018-03-31T03:37:15.148Z,34.94
2018-03-31T03:38:15.148Z,35.04
2018-03-31T03:39:15.161Z,35.04
2018-03-31T03:40:15.134Z,34.66
2018-03-31T03:41:15.134Z,34.56
2018-03-31T03:42:15.128Z,34.46
2018-03-31T03:43:15.125Z,34.75
2018-03-31T03:44:15.115Z,34.46
2018-03-31T03:45:15.115Z,34.66
2018-03-31T03:46:15.103Z,34.56
2018-03-31T03:47:15.110Z,34.75
2018-03-31T03:48:15.093Z,34.84
2018-03-31T03:49:15.096Z,34.48
2018-03-31T03:50:15.096Z,34.46
2018-03-31T03:51:15.086Z,34.58
2018-03-31T03:52:15.070Z,34.77
2018-03-31T03:53:15.073Z,34.66
2018-03-31T03:54:15.079Z,34.67
2018-03-31T03:55:15.061Z,34.77
2018-03-31T03:56:15.058Z,34.58
2018-03-31T03:57:15.059Z,34.58
2018-03-31T03:58:15.050Z,34.67
2018-03-31T03:59:15.050Z,34.86
2018-03-31T04:00:15.042Z,34.67
2018-03-31T04:01:15.031Z,34.67
2018-03-31T04:02:15.029Z,34.67
2018-03-31T04:03:15.029Z,34.86
2018-03-31T04:04:15.020Z,34.66
2018-03-31T04:05:15.007Z,34.58
2018-03-31T04:06:15.005Z,34.58
2018-03-31T04:07:14.998Z,34.58
2018-03-31T04:08:14.994Z,34.77
2018-03-31T04:09:14.987Z,34.75
2018-03-31T04:10:14.989Z,34.67
2018-03-31T04:11:14.980Z,34.77
2018-03-31T04:12:14.974Z,34.77
2018-03-31T04:13:14.969Z,34.77
2018-03-31T04:14:14.959Z,34.67
2018-03-31T04:15:14.953Z,34.77
2018-03-31T04:16:14.961Z,34.77
2018-03-31T04:17:14.947Z,34.75
2018-03-31T04:18:14.949Z,34.67
2018-03-31T04:19:14.947Z,34.67
2018-03-31T04:20:14.941Z,34.56
2018-03-31T04:21:14.930Z,34.58
2018-03-31T04:22:14.916Z,34.67
2018-03-31T04:23:14.922Z,34.67
2018-03-31T04:24:14.916Z,34.58
2018-03-31T04:25:14.920Z,34.58
2018-03-31T04:26:14.905Z,34.66
2018-03-31T04:27:14.904Z,34.58
2018-03-31T04:28:14.899Z,34.67
2018-03-31T04:29:14.891Z,34.77
2018-03-31T04:30:14.885Z,34.56
2018-03-31T04:31:14.874Z,34.67
2018-03-31T04:32:14.879Z,34.67
2018-03-31T04:33:14.869Z,34.56
2018-03-31T04:34:14.872Z,34.66
2018-03-31T04:35:14.860Z,34.67
2018-03-31T04:36:14.860Z,34.75
2018-03-31T04:37:14.852Z,34.75
2018-03-31T04:38:14.839Z,34.66
2018-03-31T04:39:14.836Z,34.66
2018-03-31T04:40:14.825Z,34.56
2018-03-31T04:41:14.833Z,34.94
2018-03-31T04:42:14.827Z,34.84
2018-03-31T04:43:14.819Z,34.75
2018-03-31T04:44:14.813Z,34.56
2018-03-31T04:45:14.807Z,34.75
2018-03-31T04:46:14.810Z,34.66
2018-03-31T04:47:14.800Z,34.77
2018-03-31T04:48:14.797Z,34.67
2018-03-31T04:49:14.796Z,34.66
2018-03-31T04:50:14.790Z,34.66
2018-03-31T04:51:14.788Z,34.58
2018-03-31T04:52:14.782Z,34.75
2018-03-31T04:53:14.761Z,34.66
2018-03-31T04:54:14.769Z,34.56
2018-03-31T04:55:14.756Z,34.56
2018-03-31T04:56:14.755Z,34.66
2018-03-31T04:57:14.745Z,34.75
2018-03-31T04:58:14.755Z,35.06
2018-03-31T04:59:14.745Z,34.66
2018-03-31T05:00:14.731Z,35.14
2018-03-31T05:01:14.733Z,34.67
2018-03-31T05:02:14.725Z,34.75
2018-03-31T05:03:14.725Z,34.66
2018-03-31T05:04:14.718Z,34.94
2018-03-31T05:05:14.710Z,34.56
2018-03-31T05:06:14.696Z,34.66
2018-03-31T05:07:14.702Z,34.75
2018-03-31T05:08:14.701Z,34.66
2018-03-31T05:09:14.691Z,34.56
2018-03-31T05:10:14.691Z,35.14
2018-03-31T05:11:14.679Z,34.94
2018-03-31T05:12:14.676Z,34.46
2018-03-31T05:13:14.663Z,34.66
2018-03-31T05:14:14.658Z,34.56
2018-03-31T05:15:14.653Z,35.14
2018-03-31T05:16:14.660Z,34.84
2018-03-31T05:17:14.648Z,35.14
2018-03-31T05:18:14.638Z,34.46
2018-03-31T05:19:14.640Z,34.46
2018-03-31T05:20:14.631Z,34.56
2018-03-31T05:21:14.620Z,34.56
2018-03-31T05:22:14.620Z,34.56
2018-03-31T05:23:14.617Z,35.04
2018-03-31T05:24:14.611Z,34.75
2018-03-31T05:25:14.601Z,34.66
2018-03-31T05:26:14.601Z,34.56
2018-03-31T05:27:14.604Z,34.66
2018-03-31T05:28:14.600Z,34.67
2018-03-31T05:29:14.593Z,34.75
2018-03-31T05:30:14.581Z,34.77
2018-03-31T05:31:14.581Z,34.56
2018-03-31T05:32:14.572Z,34.75
2018-03-31T05:33:14.585Z,34.66
2018-03-31T05:34:14.556Z,34.66
2018-03-31T05:35:14.558Z,34.66
2018-03-31T05:36:14.548Z,34.66
2018-03-31T05:37:14.534Z,34.46
2018-03-31T05:38:14.543Z,34.56
2018-03-31T05:39:14.537Z,34.56
2018-03-31T05:40:14.551Z,34.66
2018-03-31T05:41:14.531Z,34.58
2018-03-31T05:42:14.570Z,34.56
2018-03-31T05:43:14.516Z,34.66
2018-03-31T05:44:14.528Z,34.66
2018-03-31T05:45:14.505Z,34.58
2018-03-31T05:46:14.501Z,34.77
2018-03-31T05:47:14.482Z,34.29
2018-03-31T05:48:14.488Z,35.25
2018-03-31T05:49:14.486Z,34.48
2018-03-31T05:50:14.482Z,34.48
2018-03-31T05:51:14.487Z,34.27
2018-03-31T05:52:14.465Z,34.58
2018-03-31T05:53:14.467Z,34.48
2018-03-31T05:54:14.462Z,34.48
2018-03-31T05:55:14.446Z,34.38
2018-03-31T05:56:14.448Z,34.19
2018-03-31T05:57:14.445Z,34.19
2018-03-31T05:58:14.436Z,34.48
2018-03-31T05:59:14.433Z,34.19
2018-03-31T06:00:14.422Z,33.71
2018-03-31T06:01:14.428Z,33.71
2018-03-31T06:02:14.422Z,33.91
2018-03-31T06:03:14.421Z,33.81
2018-03-31T06:04:14.402Z,33.81
2018-03-31T06:05:14.393Z,33.81
2018-03-31T06:06:14.403Z,33.81
2018-03-31T06:07:14.393Z,33.81
2018-03-31T06:08:14.383Z,34.00
2018-03-31T06:09:14.389Z,33.81
2018-03-31T06:10:14.369Z,33.91
2018-03-31T06:11:14.367Z,34.17
2018-03-31T06:12:14.372Z,34.00
2018-03-31T06:13:14.359Z,33.91
2018-03-31T06:14:14.358Z,33.91
2018-03-31T06:15:14.342Z,33.91
2018-03-31T06:16:14.352Z,34.00
2018-03-31T06:17:14.338Z,33.79
2018-03-31T06:18:14.331Z,33.91
2018-03-31T06:19:14.333Z,34.09
2018-03-31T06:20:14.323Z,33.91
2018-03-31T06:21:14.316Z,33.91
2018-03-31T06:22:14.308Z,33.81
2018-03-31T06:23:14.308Z,33.91
2018-03-31T06:24:14.306Z,33.91
2018-03-31T06:25:14.297Z,34.00
2018-03-31T06:26:14.297Z,33.91
2018-03-31T06:27:14.313Z,33.81
2018-03-31T06:28:14.289Z,34.00
2018-03-31T06:29:14.283Z,33.91
2018-03-31T06:30:14.298Z,34.00
2018-03-31T06:31:14.270Z,33.91
2018-03-31T06:32:14.277Z,34.19
2018-03-31T06:33:14.261Z,33.91
2018-03-31T06:34:14.257Z,33.91
2018-03-31T06:35:14.262Z,33.91
2018-03-31T06:36:14.249Z,34.00
2018-03-31T06:37:14.249Z,33.42
2018-03-31T06:38:14.227Z,34.48
2018-03-31T06:39:14.277Z,34.19
2018-03-31T06:40:14.227Z,34.48
2018-03-31T06:41:14.219Z,34.09
2018-03-31T06:42:14.221Z,34.09
2018-03-31T06:43:14.208Z,33.91
2018-03-31T06:44:14.206Z,34.19
2018-03-31T06:45:14.207Z,33.91
2018-03-31T06:46:14.201Z,33.42
2018-03-31T06:47:14.194Z,33.61
2018-03-31T06:48:14.192Z,33.42
2018-03-31T06:49:14.188Z,33.91
2018-03-31T06:50:14.175Z,33.91
2018-03-31T06:51:14.179Z,33.61
2018-03-31T06:52:14.168Z,33.42
2018-03-31T06:53:14.158Z,33.81
2018-03-31T06:54:14.158Z,33.71
2018-03-31T06:55:14.158Z,33.81
2018-03-31T06:56:14.152Z,33.71
2018-03-31T06:57:14.143Z,33.81
2018-03-31T06:58:14.155Z,33.81
2018-03-31T06:59:14.125Z,33.63
2018-03-31T07:00:14.133Z,33.73
2018-03-31T07:01:14.129Z,33.73
2018-03-31T07:02:14.114Z,33.44
2018-03-31T07:03:14.105Z,33.25
2018-03-31T07:04:14.110Z,33.15
2018-03-31T07:05:14.103Z,33.15
2018-03-31T07:06:14.094Z,33.73
2018-03-31T07:07:14.097Z,35.27
2018-03-31T07:08:22.252Z,34.88
2018-03-31T07:10:06.979Z,35.27
2018-03-31T07:11:06.958Z,34.69
2018-03-31T07:12:59.828Z,33.73
2018-03-31T07:13:59.809Z,33.74
2018-03-31T07:14:59.807Z,33.26
2018-03-31T07:15:59.813Z,33.17
2018-03-31T07:16:59.807Z,33.17
2018-03-31T07:17:59.785Z,33.26
2018-03-31T07:19:00.510Z,33.07
2018-03-31T07:19:59.780Z,32.97
2018-03-31T07:20:59.778Z,33.36
2018-03-31T07:22:00.603Z,33.26
2018-03-31T07:22:59.766Z,33.26
2018-03-31T07:23:59.763Z,33.07
2018-03-31T07:24:59.754Z,33.17
2018-03-31T07:25:59.758Z,33.17
2018-03-31T07:26:59.745Z,32.97
2018-03-31T07:27:59.740Z,32.70
2018-03-31T07:28:59.739Z,32.51
2018-03-31T07:29:59.733Z,33.07
2018-03-31T07:30:59.724Z,32.87
2018-03-31T07:31:59.738Z,33.17
2018-03-31T07:32:59.726Z,33.26
2018-03-31T07:33:59.720Z,33.45
2018-03-31T07:34:59.719Z,33.17
2018-03-31T07:35:59.721Z,33.36
2018-03-31T07:36:59.704Z,33.45
2018-03-31T07:37:59.700Z,33.36
2018-03-31T07:38:59.694Z,33.17
2018-03-31T07:39:59.696Z,33.36
2018-03-31T07:40:59.693Z,33.26
2018-03-31T07:41:59.680Z,33.17
2018-03-31T07:42:59.681Z,33.17
2018-03-31T07:43:59.668Z,33.36
2018-03-31T07:44:59.673Z,33.26
2018-03-31T07:45:59.671Z,33.18
2018-03-31T07:46:59.701Z,33.26
2018-03-31T07:47:59.660Z,33.36
2018-03-31T07:48:59.661Z,33.37
2018-03-31T07:49:59.652Z,33.37
2018-03-31T07:50:59.640Z,33.28
2018-03-31T07:51:59.655Z,33.66
2018-03-31T07:52:59.634Z,33.57
2018-03-31T07:53:59.627Z,33.28
2018-03-31T07:54:59.627Z,33.37
2018-03-31T07:55:59.617Z,33.28
2018-03-31T07:56:59.609Z,33.28
2018-03-31T07:57:59.609Z,33.18
2018-03-31T07:58:59.605Z,33.28
2018-03-31T07:59:59.612Z,33.37
2018-03-31T08:00:59.648Z,33.28
2018-03-31T08:01:59.591Z,33.18
2018-03-31T08:02:59.583Z,33.37
2018-03-31T08:03:59.576Z,33.18
2018-03-31T08:04:59.578Z,33.28
2018-03-31T08:05:59.581Z,33.37
2018-03-31T08:06:59.578Z,33.18
2018-03-31T08:07:59.583Z,32.99
2018-03-31T08:08:59.569Z,32.99
2018-03-31T08:09:59.597Z,32.79
2018-03-31T08:10:59.553Z,32.89
2018-03-31T08:11:59.578Z,32.79
2018-03-31T08:12:59.555Z,32.89
2018-03-31T08:13:59.549Z,32.79
2018-03-31T08:14:59.530Z,32.99
2018-03-31T08:15:59.529Z,32.89
2018-03-31T08:16:59.528Z,32.89
2018-03-31T08:17:59.520Z,32.89
2018-03-31T08:18:59.519Z,32.79
2018-03-31T08:19:59.521Z,33.18
2018-03-31T08:20:59.508Z,32.89
2018-03-31T08:21:59.509Z,32.89
2018-03-31T08:22:59.503Z,32.99
2018-03-31T08:23:59.490Z,33.09
2018-03-31T08:24:59.517Z,33.09
2018-03-31T08:25:59.488Z,32.89
2018-03-31T08:26:59.512Z,33.18
2018-03-31T08:27:59.488Z,32.91
2018-03-31T08:28:59.462Z,32.89
2018-03-31T08:29:59.475Z,32.70
2018-03-31T08:30:59.461Z,33.20
2018-03-31T08:31:59.496Z,32.79
2018-03-31T08:32:59.484Z,33.20
2018-03-31T08:33:59.447Z,32.89
2018-03-31T08:34:59.454Z,32.70
2018-03-31T08:35:59.465Z,32.52
2018-03-31T08:36:59.435Z,32.62
2018-03-31T08:37:59.444Z,32.33
2018-03-31T08:38:59.440Z,32.71
2018-03-31T08:39:59.470Z,32.52
2018-03-31T08:40:59.420Z,32.33
2018-03-31T08:41:59.416Z,32.23
2018-03-31T08:43:00.051Z,32.33
2018-03-31T08:44:00.056Z,32.52
2018-03-31T08:45:00.040Z,32.62
2018-03-31T08:45:59.445Z,32.23
2018-03-31T08:46:59.418Z,32.23
2018-03-31T08:47:59.401Z,32.23
2018-03-31T08:48:59.398Z,32.33
2018-03-31T08:49:59.409Z,32.14
2018-03-31T08:50:59.391Z,32.23
2018-03-31T08:51:59.449Z,32.33
2018-03-31T08:52:59.411Z,32.33
2018-03-31T08:53:59.365Z,32.43
2018-03-31T08:54:59.364Z,32.43
2018-03-31T08:55:59.358Z,32.52
2018-03-31T08:56:59.399Z,32.23
2018-03-31T08:57:59.350Z,32.71
2018-03-31T08:58:59.345Z,32.62
2018-03-31T09:00:00.048Z,32.52
2018-03-31T09:00:59.332Z,32.52
2018-03-31T09:01:59.330Z,32.71
2018-03-31T09:02:59.347Z,32.81
2018-03-31T09:03:59.328Z,32.71
2018-03-31T09:04:59.330Z,32.71
2018-03-31T09:05:59.397Z,32.71
2018-03-31T09:06:59.312Z,32.81
2018-03-31T09:07:59.402Z,32.52
2018-03-31T09:08:59.350Z,32.62
2018-03-31T09:09:59.336Z,32.73
2018-03-31T09:10:59.305Z,32.62
2018-03-31T09:11:59.313Z,32.62
2018-03-31T09:12:59.324Z,32.54
2018-03-31T09:13:59.286Z,32.71
2018-03-31T09:14:59.296Z,32.64
2018-03-31T09:15:59.276Z,32.64
2018-03-31T09:17:00.057Z,32.24
2018-03-31T09:18:00.065Z,32.81
2018-03-31T09:18:59.262Z,32.64
2018-03-31T09:19:59.281Z,32.62
2018-03-31T09:20:59.260Z,32.64
2018-03-31T09:21:59.320Z,32.34
2018-03-31T09:23:00.052Z,32.23
2018-03-31T09:23:59.240Z,32.44
2018-03-31T09:24:59.247Z,32.73
2018-03-31T09:25:59.246Z,32.44
2018-03-31T09:26:59.235Z,32.34
2018-03-31T09:27:59.318Z,32.52
2018-03-31T09:28:59.226Z,32.15
2018-03-31T09:29:59.217Z,32.24
2018-03-31T09:30:59.240Z,32.52
2018-03-31T09:31:59.247Z,32.52
2018-03-31T09:32:59.225Z,32.34
2018-03-31T09:33:59.212Z,32.24
2018-03-31T09:34:59.197Z,32.34
2018-03-31T09:35:59.202Z,32.24
2018-03-31T09:36:59.192Z,32.44
2018-03-31T09:38:00.069Z,32.34
2018-03-31T09:38:59.188Z,32.15
2018-03-31T09:39:59.212Z,32.34
2018-03-31T09:40:59.177Z,32.54
2018-03-31T09:41:59.177Z,32.23
2018-03-31T09:42:59.179Z,32.52
2018-03-31T09:43:59.171Z,32.54
2018-03-31T09:44:59.166Z,32.92
2018-03-31T09:45:59.154Z,32.81
2018-03-31T09:46:59.151Z,32.54
2018-03-31T09:47:59.152Z,32.64
2018-03-31T09:48:59.155Z,32.64
2018-03-31T09:49:59.142Z,32.73
2018-03-31T09:50:59.140Z,32.54
2018-03-31T09:51:59.136Z,32.44
2018-03-31T09:52:59.137Z,32.54
2018-03-31T09:53:59.143Z,32.44
2018-03-31T09:54:59.114Z,32.54
2018-03-31T09:55:59.111Z,32.54
2018-03-31T09:56:59.120Z,32.34
2018-03-31T09:57:59.132Z,32.54
2018-03-31T09:58:59.112Z,32.44
2018-03-31T09:59:59.109Z,32.64
2018-03-31T10:00:59.120Z,32.44
2018-03-31T10:01:59.102Z,32.64
2018-03-31T10:02:59.106Z,32.44
2018-03-31T10:03:59.577Z,32.54
2018-03-31T10:05:00.067Z,32.44
2018-03-31T10:05:59.089Z,32.54
2018-03-31T10:06:59.084Z,32.54
2018-03-31T10:07:59.146Z,32.54
2018-03-31T10:08:59.069Z,32.44
2018-03-31T10:09:59.562Z,32.54
2018-03-31T10:10:59.069Z,32.54
2018-03-31T10:11:59.060Z,32.54
2018-03-31T10:12:59.196Z,32.64
2018-03-31T10:13:59.584Z,32.44
2018-03-31T10:14:59.048Z,32.73
2018-03-31T10:15:59.041Z,32.43
2018-03-31T10:16:59.047Z,32.82
2018-03-31T10:17:59.031Z,32.92
2018-03-31T10:18:59.033Z,33.12
2018-03-31T10:19:59.022Z,33.02
2018-03-31T10:20:59.031Z,32.24
2018-03-31T10:21:59.016Z,33.22
2018-03-31T10:22:59.052Z,32.64
2018-03-31T10:23:59.010Z,32.54
2018-03-31T10:24:59.053Z,32.44
2018-03-31T10:25:59.033Z,32.54
2018-03-31T10:26:59.032Z,32.54
2018-03-31T10:27:59.000Z,32.54
2018-03-31T10:28:59.010Z,32.34
2018-03-31T10:29:59.005Z,33.12
2018-03-31T10:30:58.990Z,32.44
2018-03-31T10:31:58.973Z,32.73
2018-03-31T10:32:58.989Z,32.92
2018-03-31T10:33:58.980Z,32.54
2018-03-31T10:34:58.960Z,32.92
2018-03-31T10:35:58.957Z,32.92
2018-03-31T10:36:58.959Z,32.73
2018-03-31T10:37:58.974Z,32.92
2018-03-31T10:38:58.948Z,33.12
2018-03-31T10:39:58.952Z,32.92
2018-03-31T10:40:58.946Z,33.12
2018-03-31T10:41:58.945Z,33.22
2018-03-31T10:42:58.936Z,32.82
2018-03-31T10:43:58.938Z,32.82
2018-03-31T10:44:58.932Z,32.82
2018-03-31T10:45:58.929Z,33.02
2018-03-31T10:46:58.921Z,32.92
2018-03-31T10:47:58.930Z,33.02
2018-03-31T10:48:58.922Z,32.92
2018-03-31T10:49:58.916Z,33.02
2018-03-31T10:50:58.936Z,32.92
2018-03-31T10:51:58.898Z,33.31
2018-03-31T10:52:58.898Z,32.92
2018-03-31T10:53:58.917Z,33.12
2018-03-31T10:54:58.906Z,33.12
2018-03-31T10:55:58.908Z,33.40
2018-03-31T10:56:58.882Z,33.31
2018-03-31T10:57:58.898Z,33.31
2018-03-31T10:58:58.891Z,33.22
2018-03-31T10:59:58.878Z,33.31
2018-03-31T11:00:58.867Z,33.31
2018-03-31T11:01:58.869Z,33.31
2018-03-31T11:02:58.878Z,33.22
2018-03-31T11:03:59.603Z,33.40
2018-03-31T11:04:58.858Z,33.22
2018-03-31T11:05:58.842Z,33.50
2018-03-31T11:06:58.850Z,33.31
2018-03-31T11:07:58.841Z,33.40
2018-03-31T11:08:59.592Z,33.40
2018-03-31T11:09:58.849Z,33.31
2018-03-31T11:10:58.843Z,33.22
2018-03-31T11:11:58.830Z,33.50
2018-03-31T11:12:58.823Z,33.40
2018-03-31T11:13:58.826Z,33.60
2018-03-31T11:14:58.803Z,33.22
2018-03-31T11:15:58.806Z,33.70
2018-03-31T11:16:58.808Z,33.31
2018-03-31T11:17:58.813Z,33.40
2018-03-31T11:18:58.800Z,33.40
2018-03-31T11:19:58.814Z,33.40
2018-03-31T11:20:58.785Z,33.50
2018-03-31T11:21:58.787Z,33.70
2018-03-31T11:22:58.784Z,33.40
2018-03-31T11:23:58.785Z,33.70
2018-03-31T11:24:58.782Z,33.80
2018-03-31T11:25:58.773Z,33.70
2018-03-31T11:26:58.780Z,33.70
2018-03-31T11:27:58.760Z,33.58
2018-03-31T11:28:58.777Z,33.60
2018-03-31T11:29:58.766Z,33.70
2018-03-31T11:30:58.753Z,33.70
2018-03-31T11:31:58.763Z,33.80
2018-03-31T11:32:58.754Z,33.40
2018-03-31T11:33:58.762Z,33.80
2018-03-31T11:34:58.767Z,33.50
2018-03-31T11:35:59.626Z,33.50
2018-03-31T11:36:58.848Z,33.70
2018-03-31T11:37:58.769Z,33.50
2018-03-31T11:38:58.739Z,33.50
2018-03-31T11:39:58.727Z,33.80
2018-03-31T11:40:58.724Z,33.50
2018-03-31T11:41:58.717Z,33.80
2018-03-31T11:42:58.713Z,33.78
2018-03-31T11:43:58.721Z,33.70
2018-03-31T11:44:58.711Z,33.78
2018-03-31T11:45:58.728Z,33.58
2018-03-31T11:46:58.692Z,33.87
2018-03-31T11:47:58.688Z,33.68
2018-03-31T11:48:58.713Z,34.36
2018-03-31T11:49:58.699Z,33.80
2018-03-31T11:50:58.685Z,33.78
2018-03-31T11:51:58.699Z,33.97
2018-03-31T11:52:58.675Z,33.78
2018-03-31T11:53:58.663Z,33.68
2018-03-31T11:54:58.664Z,33.70
2018-03-31T11:55:58.663Z,33.87
2018-03-31T11:56:58.669Z,33.68
2018-03-31T11:57:58.652Z,33.58
2018-03-31T11:58:58.653Z,33.58
2018-03-31T11:59:58.653Z,33.68
2018-03-31T12:00:58.699Z,33.78
2018-03-31T12:01:58.645Z,33.97
2018-03-31T12:02:58.649Z,33.97
2018-03-31T12:03:58.637Z,33.97
2018-03-31T12:04:58.638Z,33.97
2018-03-31T12:05:58.649Z,34.26
2018-03-31T12:06:58.633Z,33.97
2018-03-31T12:07:58.622Z,33.78
2018-03-31T12:08:58.610Z,34.45
2018-03-31T12:09:58.618Z,33.97
2018-03-31T12:10:58.604Z,34.06
2018-03-31T12:11:58.613Z,33.78
2018-03-31T12:12:58.607Z,33.97
2018-03-31T12:13:58.603Z,34.55
2018-03-31T12:14:59.117Z,34.06
2018-03-31T12:15:58.612Z,34.06
2018-03-31T12:16:58.595Z,34.16
2018-03-31T12:17:58.579Z,34.06
2018-03-31T12:18:58.585Z,34.06
2018-03-31T12:19:58.577Z,33.78
2018-03-31T12:20:58.573Z,33.87
2018-03-31T12:21:58.563Z,33.78
2018-03-31T12:22:58.558Z,34.45
2018-03-31T12:23:58.571Z,34.55
2018-03-31T12:24:58.550Z,34.55
2018-03-31T12:25:58.542Z,34.55
2018-03-31T12:26:58.542Z,34.45
2018-03-31T12:27:58.547Z,34.55
2018-03-31T12:28:58.532Z,34.74
2018-03-31T12:29:58.542Z,34.36
2018-03-31T12:30:59.131Z,34.45
2018-03-31T12:31:59.137Z,34.64
2018-03-31T12:32:58.524Z,34.74
2018-03-31T12:33:58.526Z,34.64
2018-03-31T12:34:58.524Z,34.64
2018-03-31T12:35:58.519Z,35.13
2018-03-31T12:36:59.125Z,34.74
2018-03-31T12:37:58.501Z,34.45
2018-03-31T12:38:58.501Z,33.58
2018-03-31T12:39:58.490Z,34.16
2018-03-31T12:40:58.482Z,34.55
2018-03-31T12:41:58.491Z,34.16
2018-03-31T12:42:58.507Z,34.74
2018-03-31T12:43:58.497Z,34.74
2018-03-31T12:44:58.488Z,34.84
2018-03-31T12:45:59.130Z,34.84
2018-03-31T12:46:58.470Z,34.55
2018-03-31T12:47:58.471Z,34.74
2018-03-31T12:48:59.134Z,34.74
2018-03-31T12:49:58.505Z,35.03
2018-03-31T12:50:58.460Z,34.74
2018-03-31T12:51:58.451Z,34.64
2018-03-31T12:52:58.443Z,34.94
2018-03-31T12:53:58.449Z,34.74